createdAt,value
2019-05-17T00:00:37.120Z,973.22
2019-05-17T00:01:34.088Z,973.19
2019-05-17T00:02:34.012Z,973.21
2019-05-17T00:03:33.926Z,973.20
2019-05-17T00:04:36.263Z,973.19
2019-05-17T00:05:33.759Z,973.19
2019-05-17T00:06:33.682Z,973.20
2019-05-17T00:07:33.598Z,973.16
2019-05-17T00:08:34.957Z,973.13
2019-05-17T00:09:33.431Z,973.16
2019-05-17T00:10:33.351Z,973.15
2019-05-17T00:11:33.265Z,973.08
2019-05-17T00:12:33.185Z,973.08
2019-05-17T00:13:33.108Z,973.06
2019-05-17T00:14:33.020Z,973.07
2019-05-17T00:15:32.938Z,973.06
2019-05-17T00:16:32.859Z,973.01
2019-05-17T00:17:32.775Z,973.03
2019-05-17T00:18:32.692Z,973.01
2019-05-17T00:19:32.615Z,972.98
2019-05-17T00:20:32.527Z,972.97
2019-05-17T00:21:32.446Z,972.99
2019-05-17T00:22:32.363Z,972.98
2019-05-17T00:23:32.281Z,972.95
2019-05-17T00:24:32.200Z,972.95
2019-05-17T00:25:32.120Z,972.97
2019-05-17T00:26:32.036Z,972.90
2019-05-17T00:27:31.953Z,972.90
2019-05-17T00:28:31.871Z,972.88
2019-05-17T00:29:31.790Z,972.83
2019-05-17T00:30:31.710Z,972.83
2019-05-17T00:31:31.619Z,972.79
2019-05-17T00:32:31.546Z,972.78
2019-05-17T00:33:31.459Z,972.79
2019-05-17T00:34:31.376Z,972.79
2019-05-17T00:35:31.301Z,972.74
2019-05-17T00:36:31.208Z,972.72
2019-05-17T00:37:31.135Z,972.73
2019-05-17T00:38:31.055Z,972.69
2019-05-17T00:39:30.972Z,972.68
2019-05-17T00:40:30.886Z,972.71
2019-05-17T00:41:30.806Z,972.66
2019-05-17T00:42:30.722Z,972.68
2019-05-17T00:43:30.637Z,972.66
2019-05-17T00:44:30.570Z,972.64
2019-05-17T00:45:30.479Z,972.64
2019-05-17T00:46:30.393Z,972.60
2019-05-17T00:47:30.312Z,972.60
2019-05-17T00:48:30.232Z,972.62
2019-05-17T00:49:30.146Z,972.58
2019-05-17T00:50:30.065Z,972.62
2019-05-17T00:51:29.981Z,972.60
2019-05-17T00:52:29.903Z,972.58
2019-05-17T00:53:29.813Z,972.56
2019-05-17T00:54:29.739Z,972.56
2019-05-17T00:55:29.653Z,972.54
2019-05-17T00:56:29.572Z,972.53
2019-05-17T00:57:29.488Z,972.53
2019-05-17T00:58:29.408Z,972.53
2019-05-17T00:59:29.323Z,972.51
2019-05-17T01:00:29.243Z,972.51
2019-05-17T01:01:29.163Z,972.51
2019-05-17T01:02:29.076Z,972.51
2019-05-17T01:03:28.995Z,972.50
2019-05-17T01:04:28.921Z,972.51
2019-05-17T01:05:28.830Z,972.49
2019-05-17T01:06:28.748Z,972.51
2019-05-17T01:07:28.668Z,972.46
2019-05-17T01:08:28.589Z,972.47
2019-05-17T01:09:28.500Z,972.44
2019-05-17T01:10:28.422Z,972.49
2019-05-17T01:11:28.337Z,972.44
2019-05-17T01:12:28.257Z,972.41
2019-05-17T01:13:28.174Z,972.41
2019-05-17T01:14:28.090Z,972.40
2019-05-17T01:15:28.006Z,972.41
2019-05-17T01:16:27.934Z,972.45
2019-05-17T01:17:27.845Z,972.43
2019-05-17T01:18:27.786Z,972.41
2019-05-17T01:19:27.676Z,972.45
2019-05-17T01:20:27.806Z,972.44
2019-05-17T01:21:27.514Z,972.42
2019-05-17T01:22:27.429Z,972.45
2019-05-17T01:23:27.350Z,972.46
2019-05-17T01:24:27.500Z,972.46
2019-05-17T01:25:27.358Z,972.47
2019-05-17T01:26:27.101Z,972.45
2019-05-17T01:27:27.021Z,972.47
2019-05-17T01:28:27.095Z,972.46
2019-05-17T01:29:26.937Z,972.45
2019-05-17T01:30:26.772Z,972.46
2019-05-17T01:31:26.695Z,972.45
2019-05-17T01:32:26.731Z,972.43
2019-05-17T01:33:26.642Z,972.45
2019-05-17T01:34:27.248Z,972.42
2019-05-17T01:35:26.787Z,972.42
2019-05-17T01:36:26.464Z,972.39
2019-05-17T01:37:27.688Z,972.39
2019-05-17T01:38:26.962Z,972.39
2019-05-17T01:39:26.887Z,972.34
2019-05-17T01:40:26.424Z,972.33
2019-05-17T01:41:26.674Z,972.35
2019-05-17T01:42:26.491Z,972.32
2019-05-17T01:43:27.340Z,972.36
2019-05-17T01:44:27.240Z,972.38
2019-05-17T01:45:26.933Z,972.40
2019-05-17T01:46:26.538Z,972.37
2019-05-17T01:47:27.265Z,972.40
2019-05-17T01:48:27.074Z,972.40
2019-05-17T01:49:27.083Z,972.41
2019-05-17T01:50:26.654Z,972.41
2019-05-17T01:51:26.331Z,972.40
2019-05-17T01:52:27.177Z,972.39
2019-05-17T01:53:26.895Z,972.40
2019-05-17T01:54:26.768Z,972.40
2019-05-17T01:55:26.555Z,972.39
2019-05-17T01:56:26.283Z,972.40
2019-05-17T01:57:24.540Z,972.40
2019-05-17T01:58:26.900Z,972.41
2019-05-17T01:59:26.622Z,972.40
2019-05-17T02:00:26.431Z,972.38
2019-05-17T02:01:24.210Z,972.35
2019-05-17T02:02:24.127Z,972.33
2019-05-17T02:03:24.045Z,972.33
2019-05-17T02:04:23.962Z,972.33
2019-05-17T02:05:23.874Z,972.36
2019-05-17T02:06:23.799Z,972.30
2019-05-17T02:07:23.716Z,972.33
2019-05-17T02:08:23.632Z,972.34
2019-05-17T02:09:34.779Z,972.37
2019-05-17T02:10:23.463Z,972.32
2019-05-17T02:11:23.382Z,972.29
2019-05-17T02:12:23.295Z,972.29
2019-05-17T02:13:23.218Z,972.31
2019-05-17T02:14:23.133Z,972.29
2019-05-17T02:15:23.047Z,972.29
2019-05-17T02:16:22.971Z,972.27
2019-05-17T02:17:22.892Z,972.27
2019-05-17T02:18:22.804Z,972.29
2019-05-17T02:19:22.719Z,972.29
2019-05-17T02:20:22.638Z,972.24
2019-05-17T02:21:22.554Z,972.26
2019-05-17T02:22:22.473Z,972.25
2019-05-17T02:23:22.395Z,972.26
2019-05-17T02:24:22.308Z,972.21
2019-05-17T02:25:22.223Z,972.26
2019-05-17T02:26:22.142Z,972.24
2019-05-17T02:27:25.202Z,972.22
2019-05-17T02:28:21.975Z,972.20
2019-05-17T02:29:21.890Z,972.19
2019-05-17T02:30:23.289Z,972.15
2019-05-17T02:31:24.564Z,972.16
2019-05-17T02:32:23.478Z,972.21
2019-05-17T02:33:23.572Z,972.19
2019-05-17T02:34:23.262Z,972.19
2019-05-17T02:35:23.155Z,972.17
2019-05-17T02:36:22.835Z,972.16
2019-05-17T02:37:23.164Z,972.13
2019-05-17T02:38:22.489Z,972.14
2019-05-17T02:39:23.232Z,972.17
2019-05-17T02:40:22.675Z,972.19
2019-05-17T02:41:22.720Z,972.17
2019-05-17T02:42:22.416Z,972.16
2019-05-17T02:43:23.370Z,972.16
2019-05-17T02:44:23.329Z,972.11
2019-05-17T02:45:23.213Z,972.12
2019-05-17T02:46:28.134Z,972.14
2019-05-17T02:48:25.793Z,972.13
2019-05-17T02:49:25.693Z,972.11
2019-05-17T02:51:32.368Z,972.09
2019-05-17T02:52:32.822Z,972.08
2019-05-17T02:54:35.192Z,972.06
2019-05-17T02:55:35.109Z,972.10
2019-05-17T02:56:35.020Z,972.08
2019-05-17T02:57:34.975Z,972.07
2019-05-17T02:58:34.858Z,972.07
2019-05-17T02:59:34.780Z,972.04
2019-05-17T03:00:34.688Z,972.03
2019-05-17T03:01:34.607Z,972.02
2019-05-17T03:02:34.524Z,972.00
2019-05-17T03:03:34.441Z,972.03
2019-05-17T03:04:34.362Z,972.04
2019-05-17T03:05:34.293Z,972.00
2019-05-17T03:06:34.195Z,972.04
2019-05-17T03:07:34.108Z,972.06
2019-05-17T03:08:34.511Z,972.07
2019-05-17T03:09:34.044Z,972.11
2019-05-17T03:10:34.161Z,972.08
2019-05-17T03:11:33.772Z,972.09
2019-05-17T03:12:33.692Z,972.09
2019-05-17T03:13:33.611Z,972.10
2019-05-17T03:14:33.541Z,972.11
2019-05-17T03:15:33.473Z,972.10
2019-05-17T03:16:33.971Z,972.08
2019-05-17T03:17:34.102Z,972.09
2019-05-17T03:18:33.713Z,972.11
2019-05-17T03:19:33.225Z,972.11
2019-05-17T03:20:33.238Z,972.11
2019-05-17T03:21:33.784Z,972.07
2019-05-17T03:22:33.354Z,972.02
2019-05-17T03:23:33.047Z,972.00
2019-05-17T03:24:33.384Z,972.01
2019-05-17T03:25:33.726Z,971.99
2019-05-17T03:26:32.929Z,971.94
2019-05-17T03:27:33.641Z,971.96
2019-05-17T03:28:33.681Z,971.95
2019-05-17T03:29:33.523Z,971.93
2019-05-17T03:30:36.757Z,971.94
2019-05-17T03:31:41.576Z,971.91
2019-05-17T03:32:36.086Z,971.91
2019-05-17T03:33:36.039Z,971.91
2019-05-17T03:34:36.875Z,971.90
2019-05-17T03:35:37.682Z,971.85
2019-05-17T03:36:36.082Z,971.83
2019-05-17T03:37:37.276Z,971.85
2019-05-17T03:38:32.499Z,971.84
2019-05-17T03:39:33.274Z,971.82
2019-05-17T03:41:01.411Z,971.83
2019-05-17T03:41:34.089Z,971.86
2019-05-17T03:42:33.077Z,971.87
2019-05-17T03:43:34.853Z,971.86
2019-05-17T03:44:33.258Z,971.91
2019-05-17T03:45:33.870Z,971.87
2019-05-17T03:46:33.430Z,971.90
2019-05-17T03:47:33.517Z,971.92
2019-05-17T03:48:33.344Z,971.94
2019-05-17T03:49:33.104Z,971.94
2019-05-17T03:50:33.465Z,972.00
2019-05-17T03:51:33.218Z,972.05
2019-05-17T03:52:33.102Z,972.04
2019-05-17T03:53:33.163Z,972.03
2019-05-17T03:54:32.459Z,971.98
2019-05-17T03:55:33.114Z,971.96
2019-05-17T03:56:32.717Z,971.99
2019-05-17T03:57:32.204Z,971.99
2019-05-17T03:58:32.997Z,972.01
2019-05-17T03:59:29.773Z,972.04
2019-05-17T04:00:29.688Z,972.04
2019-05-17T04:01:32.600Z,972.02
2019-05-17T04:02:32.460Z,971.96
2019-05-17T04:03:32.361Z,971.97
2019-05-17T04:04:29.353Z,972.00
2019-05-17T04:05:29.273Z,972.03
2019-05-17T04:06:29.193Z,972.01
2019-05-17T04:07:29.723Z,972.02
2019-05-17T04:08:29.030Z,972.03
2019-05-17T04:09:28.944Z,972.00
2019-05-17T04:10:28.857Z,972.01
2019-05-17T04:11:32.924Z,972.01
2019-05-17T04:12:28.688Z,972.04
2019-05-17T04:13:28.604Z,972.03
2019-05-17T04:14:28.521Z,972.00
2019-05-17T04:15:28.438Z,972.01
2019-05-17T04:16:28.355Z,972.02
2019-05-17T04:17:28.269Z,972.04
2019-05-17T04:18:28.195Z,972.03
2019-05-17T04:19:28.101Z,972.05
2019-05-17T04:20:28.028Z,972.10
2019-05-17T04:21:27.932Z,972.12
2019-05-17T04:22:27.855Z,972.09
2019-05-17T04:23:27.768Z,972.08
2019-05-17T04:24:27.687Z,972.08
2019-05-17T04:25:27.606Z,972.07
2019-05-17T04:26:27.521Z,972.06
2019-05-17T04:27:27.438Z,972.07
2019-05-17T04:28:27.354Z,972.08
2019-05-17T04:29:27.278Z,972.08
2019-05-17T04:30:27.194Z,972.12
2019-05-17T04:31:30.490Z,972.08
2019-05-17T04:32:27.014Z,972.07
2019-05-17T04:33:26.937Z,972.11
2019-05-17T04:34:26.852Z,972.09
2019-05-17T04:35:26.770Z,972.05
2019-05-17T04:36:26.691Z,972.05
2019-05-17T04:37:26.602Z,972.05
2019-05-17T04:38:26.522Z,972.05
2019-05-17T04:39:26.441Z,972.06
2019-05-17T04:40:26.357Z,972.06
2019-05-17T04:41:39.687Z,972.04
2019-05-17T04:42:26.186Z,972.04
2019-05-17T04:43:26.102Z,971.97
2019-05-17T04:44:26.021Z,971.98
2019-05-17T04:45:25.942Z,971.99
2019-05-17T04:46:25.854Z,971.97
2019-05-17T04:47:25.770Z,971.98
2019-05-17T04:48:25.683Z,972.00
2019-05-17T04:49:25.605Z,972.00
2019-05-17T04:50:25.523Z,971.98
2019-05-17T04:51:25.436Z,971.98
2019-05-17T04:52:25.356Z,971.96
2019-05-17T04:53:25.279Z,971.97
2019-05-17T04:54:25.196Z,971.97
2019-05-17T04:55:25.105Z,972.00
2019-05-17T04:56:25.016Z,971.98
2019-05-17T04:57:24.941Z,971.95
2019-05-17T04:58:24.856Z,971.95
2019-05-17T04:59:24.771Z,971.99
2019-05-17T05:00:24.691Z,971.94
2019-05-17T05:01:24.610Z,971.92
2019-05-17T05:02:24.526Z,971.94
2019-05-17T05:03:24.440Z,971.97
2019-05-17T05:04:24.360Z,971.95
2019-05-17T05:05:24.274Z,971.93
2019-05-17T05:06:24.192Z,971.92
2019-05-17T05:07:24.110Z,971.92
2019-05-17T05:08:24.029Z,971.92
2019-05-17T05:09:23.945Z,971.89
2019-05-17T05:10:23.855Z,971.91
2019-05-17T05:11:23.778Z,971.84
2019-05-17T05:12:23.689Z,971.87
2019-05-17T05:13:23.689Z,971.82
2019-05-17T05:14:23.525Z,971.84
2019-05-17T05:15:23.453Z,971.82
2019-05-17T05:16:23.386Z,971.79
2019-05-17T05:17:23.278Z,971.79
2019-05-17T05:18:23.197Z,971.81
2019-05-17T05:19:23.120Z,971.81
2019-05-17T05:20:23.038Z,971.83
2019-05-17T05:21:23.219Z,971.82
2019-05-17T05:22:22.863Z,971.79
2019-05-17T05:23:23.936Z,971.76
2019-05-17T05:24:22.702Z,971.81
2019-05-17T05:25:22.618Z,971.82
2019-05-17T05:26:22.535Z,971.81
2019-05-17T05:27:22.451Z,971.79
2019-05-17T05:28:22.618Z,971.76
2019-05-17T05:29:22.286Z,971.81
2019-05-17T05:30:22.521Z,971.77
2019-05-17T05:31:22.769Z,971.76
2019-05-17T05:32:22.140Z,971.76
2019-05-17T05:33:22.292Z,971.76
2019-05-17T05:34:21.928Z,971.72
2019-05-17T05:35:22.465Z,971.76
2019-05-17T05:36:22.133Z,971.73
2019-05-17T05:37:23.199Z,971.73
2019-05-17T05:38:21.775Z,971.75
2019-05-17T05:39:22.844Z,971.76
2019-05-17T05:40:21.462Z,971.80
2019-05-17T05:41:22.557Z,971.75
2019-05-17T05:42:22.088Z,971.72
2019-05-17T05:43:22.563Z,971.73
2019-05-17T05:44:21.504Z,971.71
2019-05-17T05:45:22.482Z,971.71
2019-05-17T05:46:22.368Z,971.75
2019-05-17T05:47:22.183Z,971.75
2019-05-17T05:48:21.746Z,971.72
2019-05-17T05:49:21.692Z,971.71
2019-05-17T05:50:21.866Z,971.74
2019-05-17T05:51:21.663Z,971.75
2019-05-17T05:52:21.858Z,971.75
2019-05-17T05:53:21.826Z,971.75
2019-05-17T05:54:22.406Z,971.75
2019-05-17T05:55:23.163Z,971.75
2019-05-17T05:56:21.967Z,971.76
2019-05-17T05:57:21.841Z,971.76
2019-05-17T05:58:19.899Z,971.71
2019-05-17T05:59:22.306Z,971.73
2019-05-17T06:00:21.953Z,971.73
2019-05-17T06:01:21.850Z,971.73
2019-05-17T06:02:21.703Z,971.72
2019-05-17T06:03:19.494Z,971.72
2019-05-17T06:04:19.406Z,971.73
2019-05-17T06:05:21.783Z,971.70
2019-05-17T06:06:21.407Z,971.72
2019-05-17T06:07:21.451Z,971.70
2019-05-17T06:08:19.079Z,971.71
2019-05-17T06:09:18.999Z,971.72
2019-05-17T06:10:18.914Z,971.72
2019-05-17T06:11:18.829Z,971.73
2019-05-17T06:12:23.628Z,971.70
2019-05-17T06:13:18.671Z,971.67
2019-05-17T06:14:18.585Z,971.73
2019-05-17T06:15:18.500Z,971.73
2019-05-17T06:16:18.417Z,971.72
2019-05-17T06:17:18.338Z,971.70
2019-05-17T06:18:18.258Z,971.72
2019-05-17T06:19:18.173Z,971.69
2019-05-17T06:20:18.088Z,971.69
2019-05-17T06:21:18.011Z,971.67
2019-05-17T06:22:17.934Z,971.67
2019-05-17T06:23:17.844Z,971.67
2019-05-17T06:24:17.765Z,971.68
2019-05-17T06:25:17.682Z,971.69
2019-05-17T06:26:18.209Z,971.69
2019-05-17T06:27:17.520Z,971.69
2019-05-17T06:28:17.444Z,971.66
2019-05-17T06:29:17.356Z,971.67
2019-05-17T06:30:17.273Z,971.64
2019-05-17T06:31:17.188Z,971.67
2019-05-17T06:32:17.102Z,971.66
2019-05-17T06:33:28.025Z,971.68
2019-05-17T06:34:16.948Z,971.66
2019-05-17T06:35:16.859Z,971.67
2019-05-17T06:36:16.779Z,971.65
2019-05-17T06:37:16.773Z,971.67
2019-05-17T06:38:16.617Z,971.66
2019-05-17T06:39:16.534Z,971.66
2019-05-17T06:40:16.451Z,971.64
2019-05-17T06:41:16.369Z,971.63
2019-05-17T06:42:16.290Z,971.65
2019-05-17T06:43:16.209Z,971.64
2019-05-17T06:44:16.122Z,971.66
2019-05-17T06:45:16.042Z,971.61
2019-05-17T06:46:15.957Z,971.65
2019-05-17T06:47:15.878Z,971.66
2019-05-17T06:48:15.798Z,971.69
2019-05-17T06:49:15.714Z,971.66
2019-05-17T06:50:15.659Z,971.61
2019-05-17T06:51:15.550Z,971.59
2019-05-17T06:52:15.466Z,971.62
2019-05-17T06:53:15.395Z,971.60
2019-05-17T06:54:15.303Z,971.59
2019-05-17T06:55:15.224Z,971.58
2019-05-17T06:56:15.141Z,971.54
2019-05-17T06:57:15.066Z,971.56
2019-05-17T06:58:14.981Z,971.56
2019-05-17T06:59:14.904Z,971.54
2019-05-17T07:00:20.718Z,971.52
2019-05-17T07:01:14.736Z,971.53
2019-05-17T07:02:14.664Z,971.50
2019-05-17T07:03:14.570Z,971.51
2019-05-17T07:04:14.488Z,971.49
2019-05-17T07:05:14.410Z,971.48
2019-05-17T07:06:14.329Z,971.46
2019-05-17T07:07:14.246Z,971.47
2019-05-17T07:08:14.162Z,971.50
2019-05-17T07:09:14.094Z,971.52
2019-05-17T07:10:14.001Z,971.47
2019-05-17T07:11:13.920Z,971.54
2019-05-17T07:12:13.837Z,971.53
2019-05-17T07:13:13.763Z,971.51
2019-05-17T07:14:13.673Z,971.51
2019-05-17T07:15:13.594Z,971.49
2019-05-17T07:16:13.513Z,971.50
2019-05-17T07:17:13.429Z,971.47
2019-05-17T07:18:13.347Z,971.45
2019-05-17T07:19:13.267Z,971.45
2019-05-17T07:20:13.192Z,971.44
2019-05-17T07:21:13.101Z,971.46
2019-05-17T07:22:13.026Z,971.45
2019-05-17T07:23:12.948Z,971.44
2019-05-17T07:24:12.862Z,971.43
2019-05-17T07:25:12.778Z,971.40
2019-05-17T07:26:12.707Z,971.39
2019-05-17T07:27:12.618Z,971.40
2019-05-17T07:28:12.536Z,971.35
2019-05-17T07:29:12.456Z,971.38
2019-05-17T07:30:12.380Z,971.40
2019-05-17T07:31:12.311Z,971.36
2019-05-17T07:32:12.208Z,971.32
2019-05-17T07:33:12.135Z,971.34
2019-05-17T07:34:12.053Z,971.38
2019-05-17T07:35:11.971Z,971.34
2019-05-17T07:36:11.891Z,971.33
2019-05-17T07:37:11.804Z,971.30
2019-05-17T07:38:11.728Z,971.30
2019-05-17T07:39:11.642Z,971.34
2019-05-17T07:40:11.564Z,971.34
2019-05-17T07:41:11.483Z,971.31
2019-05-17T07:42:11.402Z,971.32
2019-05-17T07:43:14.734Z,971.31
2019-05-17T07:44:11.249Z,971.32
2019-05-17T07:45:11.172Z,971.28
2019-05-17T07:46:11.079Z,971.30
2019-05-17T07:47:10.998Z,971.31
2019-05-17T07:48:10.919Z,971.28
2019-05-17T07:49:11.085Z,971.27
2019-05-17T07:50:11.490Z,971.29
2019-05-17T07:51:10.677Z,971.29
2019-05-17T07:52:10.596Z,971.26
2019-05-17T07:53:10.621Z,971.25
2019-05-17T07:54:10.592Z,971.22
2019-05-17T07:55:11.071Z,971.31
2019-05-17T07:56:10.409Z,971.26
2019-05-17T07:57:10.442Z,971.25
2019-05-17T07:58:10.322Z,971.29
2019-05-17T07:59:10.028Z,971.23
2019-05-17T08:00:10.403Z,971.24
2019-05-17T08:01:10.140Z,971.20
2019-05-17T08:02:10.624Z,971.23
2019-05-17T08:03:12.605Z,971.23
2019-05-17T08:04:10.071Z,971.22
2019-05-17T08:05:10.081Z,971.20
2019-05-17T08:06:10.522Z,971.19
2019-05-17T08:07:10.697Z,971.20
2019-05-17T08:08:09.794Z,971.16
2019-05-17T08:09:13.929Z,971.17
2019-05-17T08:10:11.042Z,971.17
2019-05-17T08:11:10.660Z,971.17
2019-05-17T08:12:11.079Z,971.14
2019-05-17T08:13:25.115Z,971.18
2019-05-17T08:14:10.562Z,971.14
2019-05-17T08:15:10.766Z,971.11
2019-05-17T08:16:10.300Z,971.14
2019-05-17T08:17:10.217Z,971.11
2019-05-17T08:18:10.862Z,971.06
2019-05-17T08:19:09.741Z,971.10
2019-05-17T08:20:10.112Z,971.04
2019-05-17T08:21:10.171Z,971.01
2019-05-17T08:22:09.776Z,971.00
2019-05-17T08:23:10.227Z,971.00
2019-05-17T08:24:10.242Z,970.97
2019-05-17T08:25:10.136Z,970.94
2019-05-17T08:26:10.485Z,970.96
2019-05-17T08:27:07.774Z,970.94
2019-05-17T08:28:10.660Z,970.97
2019-05-17T08:29:09.834Z,970.94
2019-05-17T08:30:10.151Z,970.95
2019-05-17T08:31:09.758Z,970.97
2019-05-17T08:32:09.505Z,970.99
2019-05-17T08:33:07.295Z,970.95
2019-05-17T08:34:07.219Z,970.94
2019-05-17T08:35:07.134Z,970.91
2019-05-17T08:36:09.179Z,970.91
2019-05-17T08:37:09.381Z,970.92
2019-05-17T08:38:06.897Z,970.89
2019-05-17T08:39:06.813Z,970.91
2019-05-17T08:40:06.735Z,970.89
2019-05-17T08:41:06.660Z,970.89
2019-05-17T08:42:06.575Z,970.87
2019-05-17T08:43:06.494Z,970.89
2019-05-17T08:44:06.416Z,970.87
2019-05-17T08:45:06.336Z,970.80
2019-05-17T08:46:06.253Z,970.88
2019-05-17T08:47:06.176Z,970.83
2019-05-17T08:48:06.101Z,970.81
2019-05-17T08:49:06.015Z,970.80
2019-05-17T08:50:05.934Z,970.81
2019-05-17T08:51:05.862Z,970.78
2019-05-17T08:52:05.780Z,970.79
2019-05-17T08:53:05.695Z,970.79
2019-05-17T08:55:37.619Z,970.77
2019-05-17T08:56:40.019Z,970.77
2019-05-17T08:57:39.861Z,970.79
2019-05-17T08:58:37.362Z,970.81
2019-05-17T08:59:37.286Z,970.83
2019-05-17T09:00:40.154Z,970.84
2019-05-17T09:01:39.241Z,970.81
2019-05-17T09:02:37.054Z,970.76
2019-05-17T09:03:36.971Z,970.78
2019-05-17T09:04:36.893Z,970.79
2019-05-17T09:05:36.813Z,970.75
2019-05-17T09:06:36.735Z,970.75
2019-05-17T09:07:36.652Z,970.72
2019-05-17T09:08:36.569Z,970.77
2019-05-17T09:09:36.497Z,970.79
2019-05-17T09:10:36.411Z,970.78
2019-05-17T09:11:36.330Z,970.76
2019-05-17T09:12:36.259Z,970.76
2019-05-17T09:13:36.182Z,970.79
2019-05-17T09:14:36.101Z,970.77
2019-05-17T09:15:36.020Z,970.78
2019-05-17T09:16:35.943Z,970.75
2019-05-17T09:17:35.862Z,970.78
2019-05-17T09:18:35.782Z,970.76
2019-05-17T09:19:35.705Z,970.76
2019-05-17T09:20:35.631Z,970.74
2019-05-17T09:21:35.550Z,970.78
2019-05-17T09:22:35.474Z,970.83
2019-05-17T09:23:35.500Z,970.81
2019-05-17T09:24:35.315Z,970.80
2019-05-17T09:25:35.234Z,970.79
2019-05-17T09:26:35.153Z,970.78
2019-05-17T09:27:35.078Z,970.78
2019-05-17T09:28:34.995Z,970.77
2019-05-17T09:29:34.921Z,970.73
2019-05-17T09:30:34.856Z,970.74
2019-05-17T09:31:34.767Z,970.73
2019-05-17T09:32:34.684Z,970.70
2019-05-17T09:33:34.606Z,970.65
2019-05-17T09:34:34.530Z,970.72
2019-05-17T09:35:34.451Z,970.66
2019-05-17T09:36:34.370Z,970.63
2019-05-17T09:37:34.289Z,970.62
2019-05-17T09:38:34.215Z,970.64
2019-05-17T09:39:34.158Z,970.65
2019-05-17T09:40:34.055Z,970.65
2019-05-17T09:41:33.985Z,970.62
2019-05-17T09:42:33.914Z,970.63
2019-05-17T09:43:33.825Z,970.55
2019-05-17T09:44:33.745Z,970.55
2019-05-17T09:45:33.666Z,970.58
2019-05-17T09:46:33.586Z,970.53
2019-05-17T09:47:33.507Z,970.51
2019-05-17T09:48:33.431Z,970.47
2019-05-17T09:49:33.356Z,970.46
2019-05-17T09:50:33.277Z,970.52
2019-05-17T09:51:33.202Z,970.50
2019-05-17T09:52:33.115Z,970.45
2019-05-17T09:53:33.041Z,970.42
2019-05-17T09:54:44.649Z,970.38
2019-05-17T09:55:32.886Z,970.36
2019-05-17T09:56:32.805Z,970.31
2019-05-17T09:57:32.729Z,970.31
2019-05-17T09:58:32.649Z,970.31
2019-05-17T09:59:32.579Z,970.26
2019-05-17T10:00:32.503Z,970.27
2019-05-17T10:01:32.420Z,970.33
2019-05-17T10:02:32.342Z,970.30
2019-05-17T10:03:32.265Z,970.28
2019-05-17T10:04:32.187Z,970.29
2019-05-17T10:05:32.107Z,970.28
2019-05-17T10:06:32.028Z,970.25
2019-05-17T10:07:31.949Z,970.28
2019-05-17T10:08:31.871Z,970.22
2019-05-17T10:09:31.787Z,970.29
2019-05-17T10:10:31.713Z,970.21
2019-05-17T10:11:31.637Z,970.17
2019-05-17T10:12:31.558Z,970.18
2019-05-17T10:13:31.483Z,970.15
2019-05-17T10:14:31.556Z,970.12
2019-05-17T10:15:31.325Z,970.16
2019-05-17T10:16:31.249Z,970.17
2019-05-17T10:17:31.174Z,970.10
2019-05-17T10:18:31.090Z,970.10
2019-05-17T10:19:31.016Z,970.11
2019-05-17T10:20:30.947Z,970.08
2019-05-17T10:21:30.861Z,970.03
2019-05-17T10:22:30.781Z,970.04
2019-05-17T10:23:30.704Z,969.99
2019-05-17T10:24:38.127Z,970.03
2019-05-17T10:25:30.546Z,970.05
2019-05-17T10:26:30.565Z,970.04
2019-05-17T10:27:30.424Z,970.02
2019-05-17T10:28:30.315Z,969.99
2019-05-17T10:29:30.237Z,969.99
2019-05-17T10:30:30.159Z,969.94
2019-05-17T10:31:30.483Z,969.96
2019-05-17T10:32:30.907Z,969.97
2019-05-17T10:33:29.926Z,969.92
2019-05-17T10:34:29.858Z,969.99
2019-05-17T10:35:29.774Z,969.98
2019-05-17T10:36:29.695Z,969.93
2019-05-17T10:37:30.259Z,969.97
2019-05-17T10:38:30.039Z,969.97
2019-05-17T10:39:29.824Z,969.92
2019-05-17T10:40:29.894Z,969.88
2019-05-17T10:41:30.149Z,969.95
2019-05-17T10:42:30.656Z,969.92
2019-05-17T10:43:29.875Z,969.95
2019-05-17T10:44:43.638Z,969.95
2019-05-17T10:45:30.512Z,969.97
2019-05-17T10:46:30.046Z,969.94
2019-05-17T10:47:30.122Z,969.96
2019-05-17T10:48:30.081Z,969.92
2019-05-17T10:49:29.487Z,969.96
2019-05-17T10:50:29.764Z,969.98
2019-05-17T10:51:29.583Z,969.97
2019-05-17T10:52:30.010Z,969.93
2019-05-17T10:53:29.747Z,969.90
2019-05-17T10:54:30.105Z,969.88
2019-05-17T10:55:30.164Z,969.88
2019-05-17T10:56:28.145Z,969.80
2019-05-17T10:57:30.286Z,969.89
2019-05-17T10:58:29.650Z,969.84
2019-05-17T10:59:27.918Z,969.85
2019-05-17T11:00:30.143Z,969.87
2019-05-17T11:01:30.493Z,969.91
2019-05-17T11:02:30.175Z,969.92
2019-05-17T11:03:29.654Z,969.93
2019-05-17T11:04:27.529Z,969.94
2019-05-17T11:05:27.449Z,969.90
2019-05-17T11:06:27.372Z,969.86
2019-05-17T11:07:27.298Z,969.82
2019-05-17T11:08:27.221Z,969.87
2019-05-17T11:09:27.142Z,969.85
2019-05-17T11:10:27.064Z,969.85
2019-05-17T11:11:26.989Z,969.86
2019-05-17T11:12:26.907Z,969.86
2019-05-17T11:13:26.836Z,969.81
2019-05-17T11:14:26.759Z,969.84
2019-05-17T11:15:26.683Z,969.86
2019-05-17T11:16:26.609Z,969.82
2019-05-17T11:17:26.526Z,969.81
2019-05-17T11:18:26.467Z,969.80
2019-05-17T11:19:26.374Z,969.77
2019-05-17T11:20:26.302Z,969.73
2019-05-17T11:21:26.224Z,969.74
2019-05-17T11:22:26.145Z,969.77
2019-05-17T11:23:26.070Z,969.73
2019-05-17T11:24:25.995Z,969.77
2019-05-17T11:25:25.921Z,969.73
2019-05-17T11:26:25.841Z,969.71
2019-05-17T11:27:25.763Z,969.67
2019-05-17T11:28:25.687Z,969.69
2019-05-17T11:29:25.616Z,969.63
2019-05-17T11:30:25.543Z,969.65
2019-05-17T11:31:25.462Z,969.64
2019-05-17T11:32:25.384Z,969.68
2019-05-17T11:33:25.309Z,969.68
2019-05-17T11:34:25.715Z,969.69
2019-05-17T11:35:25.152Z,969.66
2019-05-17T11:36:25.079Z,969.69
2019-05-17T11:37:24.999Z,969.66
2019-05-17T11:38:24.925Z,969.67
2019-05-17T11:39:24.852Z,969.70
2019-05-17T11:40:24.778Z,969.68
2019-05-17T11:41:24.704Z,969.67
2019-05-17T11:42:24.623Z,969.62
2019-05-17T11:43:24.546Z,969.66
2019-05-17T11:44:24.473Z,969.68
2019-05-17T11:45:28.117Z,969.67
2019-05-17T11:46:35.746Z,969.63
2019-05-17T11:47:24.245Z,969.57
2019-05-17T11:48:24.167Z,969.53
2019-05-17T11:49:24.093Z,969.54
2019-05-17T11:50:24.022Z,969.58
2019-05-17T11:51:25.696Z,969.60
2019-05-17T11:52:23.922Z,969.58
2019-05-17T11:53:23.790Z,969.65
2019-05-17T11:54:23.718Z,969.54
2019-05-17T11:55:23.641Z,969.59
2019-05-17T11:56:23.570Z,969.58
2019-05-17T11:57:23.494Z,969.53
2019-05-17T11:58:23.423Z,969.55
2019-05-17T11:59:23.347Z,969.63
2019-05-17T12:00:23.286Z,969.64
2019-05-17T12:01:23.204Z,969.67
2019-05-17T12:02:23.131Z,969.60
2019-05-17T12:03:23.055Z,969.61
2019-05-17T12:04:22.994Z,969.63
2019-05-17T12:05:22.921Z,969.61
2019-05-17T12:06:22.858Z,969.58
2019-05-17T12:07:22.787Z,969.56
2019-05-17T12:08:22.721Z,969.53
2019-05-17T12:09:36.485Z,969.61
2019-05-17T12:10:22.715Z,969.57
2019-05-17T12:11:22.524Z,969.63
2019-05-17T12:12:22.459Z,969.68
2019-05-17T12:13:22.393Z,969.60
2019-05-17T12:14:22.330Z,969.58
2019-05-17T12:15:22.271Z,969.56
2019-05-17T12:16:22.207Z,969.57
2019-05-17T12:17:22.145Z,969.57
2019-05-17T12:18:22.087Z,969.55
2019-05-17T12:19:22.025Z,969.53
2019-05-17T12:20:21.970Z,969.45
2019-05-17T12:21:21.904Z,969.47
2019-05-17T12:22:21.841Z,969.47
2019-05-17T12:23:21.785Z,969.51
2019-05-17T12:24:21.725Z,969.46
2019-05-17T12:25:21.668Z,969.51
2019-05-17T12:26:21.608Z,969.53
2019-05-17T12:27:21.553Z,969.52
2019-05-17T12:28:21.490Z,969.51
2019-05-17T12:29:21.433Z,969.52
2019-05-17T12:30:21.379Z,969.34
2019-05-17T12:31:21.322Z,969.47
2019-05-17T12:32:21.264Z,969.31